Main page
METAR-TAF:

METAR-TAF

Airports :

Bou Saâda, Algeria

Bou Saada Airport

latitude: 35-20N, longitude: 004-12E, elevation: 461 m

Current weather observation

The report was made 9 hours and 47 minutes ago, at 18:00 UTC
Wind 10 kt from the North
Temperature 27°C
Humidity 37%
Pressure 1019 hPa
Visibility 10 km or more
no clouds below 1500 m and no cumulonimbus

METAR: DAAD 191800Z 01010KT CAVOK 27/11 Q1019

Time: 04:47 (03:47 UTC)

Forecast

The report was made 10 hours and 47 minutes ago, at 17:00 UTC
Forecast valid from 19 at 18 UTC to 20 at 03 UTC
Wind 12 kt from the North/Northwest
Visibility 10 km or more
no clouds below 1500 m and no cumulonimbus

TAF: DAAD 191700Z 1918/2003 34012KT CAVOK

Weather observations and forecasts of more than 4000 airports (METAR and TAF reports).

The available stations are represented by yellow and red dots on the map.

Hover mouse over dot to see the name of the station.

Then click to see weather observations and forecasts.

To change the map : click on the green buttons with a black cross to zoom in, on the green button with a dash to zoom out, or on the green arrows for adjacent maps.


METAR-TAF: